createdAt,value
2023-05-13T00:02:08.419Z,2.03
2023-05-13T00:05:10.299Z,2.10
2023-05-13T00:08:12.318Z,2.20
2023-05-13T00:11:14.214Z,1.93
2023-05-13T00:14:16.101Z,2.00
2023-05-13T00:17:17.950Z,2.10
2023-05-13T00:20:21.195Z,2.20
2023-05-13T00:23:23.220Z,2.30
2023-05-13T00:26:25.182Z,2.40
2023-05-13T00:29:27.329Z,1.70
2023-05-13T00:32:29.684Z,2.25
2023-05-13T00:35:31.561Z,2.00
2023-05-13T00:38:33.511Z,2.13
2023-05-13T00:41:35.410Z,2.22
2023-05-13T00:44:37.232Z,2.30
2023-05-13T00:47:40.414Z,2.33
2023-05-13T00:50:44.848Z,2.35
2023-05-13T00:53:47.375Z,2.00
2023-05-13T00:56:49.259Z,2.40
2023-05-13T00:59:51.531Z,2.13
2023-05-13T01:03:29.806Z,2.38
2023-05-13T01:06:45.092Z,2.40
2023-05-13T01:09:55.239Z,2.13
2023-05-13T01:13:01.567Z,2.20
2023-05-13T01:16:12.132Z,2.30
2023-05-13T01:19:33.323Z,2.10
2023-05-13T01:22:35.212Z,2.40
2023-05-13T01:25:38.882Z,1.85
2023-05-13T01:28:40.782Z,2.20
2023-05-13T01:31:44.097Z,2.38
2023-05-13T01:34:47.102Z,2.00
2023-05-13T01:37:50.703Z,2.13
2023-05-13T01:43:55.426Z,2.10
2023-05-13T01:46:57.475Z,1.90
2023-05-13T01:49:59.806Z,2.03
2023-05-13T01:56:05.494Z,1.80
2023-05-13T01:59:11.274Z,1.70
2023-05-13T02:02:13.308Z,1.90
2023-05-13T02:05:15.505Z,1.73
2023-05-13T02:08:17.553Z,2.03
2023-05-13T02:11:19.456Z,1.90
2023-05-13T02:14:21.319Z,1.88
2023-05-13T02:17:23.282Z,1.73
2023-05-13T02:20:26.445Z,2.03
2023-05-13T02:23:28.350Z,1.70
2023-05-13T02:26:30.776Z,1.80
2023-05-13T02:29:32.848Z,1.77
2023-05-13T02:32:34.676Z,1.47
2023-05-13T02:35:36.516Z,1.70
2023-05-13T02:38:38.463Z,2.10
2023-05-13T02:41:45.728Z,1.70
2023-05-13T02:44:48.786Z,1.45
2023-05-13T02:47:52.216Z,1.58
2023-05-13T02:50:54.387Z,1.40
2023-05-13T02:53:56.562Z,1.80
2023-05-13T02:56:59.225Z,1.90
2023-05-13T03:00:01.478Z,1.60
2023-05-13T03:03:03.581Z,1.73
2023-05-13T03:06:06.652Z,1.90
2023-05-13T03:09:08.600Z,1.50
2023-05-13T03:12:10.563Z,1.60
2023-05-13T03:15:12.558Z,1.70
2023-05-13T03:18:14.445Z,1.60
2023-05-13T03:21:16.492Z,1.43
2023-05-13T03:24:18.484Z,1.55
2023-05-13T03:27:21.044Z,1.40
2023-05-13T03:30:23.336Z,1.65
2023-05-13T03:33:33.582Z,1.42
2023-05-13T03:36:35.853Z,1.33
2023-05-13T03:39:37.890Z,1.23
2023-05-13T03:42:40.260Z,1.20
2023-05-13T03:45:47.660Z,1.05
2023-05-13T03:48:55.752Z,1.30
2023-05-13T03:51:58.191Z,1.38
2023-05-13T03:55:00.481Z,1.38
2023-05-13T03:58:12.239Z,1.10
2023-05-13T04:01:14.170Z,1.10
2023-05-13T04:04:16.044Z,1.17
2023-05-13T04:07:17.908Z,1.10
2023-05-13T04:10:20.001Z,1.00
2023-05-13T04:13:22.003Z,1.10
2023-05-13T04:16:25.717Z,1.13
2023-05-13T04:19:27.573Z,1.10
2023-05-13T04:22:29.418Z,1.00
2023-05-13T04:25:31.728Z,1.35
2023-05-13T04:28:34.817Z,1.20
2023-05-13T04:31:37.568Z,1.30
2023-05-13T04:34:39.543Z,1.10
2023-05-13T04:37:41.558Z,1.20
2023-05-13T04:40:48.082Z,1.05
2023-05-13T04:43:55.521Z,1.10
2023-05-13T04:46:57.467Z,1.00
2023-05-13T04:49:59.422Z,1.05
2023-05-13T04:53:01.973Z,1.13
2023-05-13T04:56:04.500Z,0.90
2023-05-13T04:59:06.409Z,1.10
2023-05-13T05:02:08.465Z,1.30
2023-05-13T05:05:10.560Z,1.10
2023-05-13T05:08:12.604Z,1.00
2023-05-13T05:11:15.007Z,1.00
2023-05-13T05:14:17.252Z,1.15
2023-05-13T05:17:19.570Z,1.17
2023-05-13T05:20:22.029Z,1.20
2023-05-13T05:23:24.820Z,1.10
2023-05-13T05:26:26.856Z,1.23
2023-05-13T05:29:28.812Z,1.10
2023-05-13T05:32:30.702Z,1.00
2023-05-13T05:35:33.778Z,1.17
2023-05-13T05:38:35.764Z,0.98
2023-05-13T05:41:38.274Z,1.00
2023-05-13T05:44:40.202Z,1.10
2023-05-13T05:47:43.218Z,1.05
2023-05-13T05:50:46.356Z,0.95
2023-05-13T05:53:52.688Z,1.40
2023-05-13T05:56:54.785Z,1.00
2023-05-13T05:59:56.652Z,1.05
2023-05-13T06:02:58.732Z,0.90
2023-05-13T06:06:01.168Z,0.80
2023-05-13T06:09:04.861Z,0.90
2023-05-13T06:12:07.196Z,0.80
2023-05-13T06:15:12.430Z,1.15
2023-05-13T06:18:14.885Z,0.90
2023-05-13T06:21:16.809Z,0.80
2023-05-13T06:24:18.705Z,0.93
2023-05-13T06:27:21.819Z,0.80
2023-05-13T06:30:23.804Z,0.77
2023-05-13T06:33:26.359Z,0.80
2023-05-13T06:36:28.341Z,1.20
2023-05-13T06:39:30.366Z,1.00
2023-05-13T06:42:32.383Z,0.80
2023-05-13T06:45:36.037Z,0.98
2023-05-13T06:51:40.253Z,0.80
2023-05-13T06:54:42.089Z,0.93
2023-05-13T06:57:46.889Z,0.82
2023-05-13T07:00:48.958Z,0.90
2023-05-13T07:03:50.822Z,0.80
2023-05-13T07:06:54.765Z,0.73
2023-05-13T07:09:56.703Z,0.88
2023-05-13T07:12:58.551Z,0.80
2023-05-13T07:16:02.408Z,0.60
2023-05-13T07:19:04.462Z,0.80
2023-05-13T07:25:08.553Z,0.80
2023-05-13T07:31:12.463Z,0.60
2023-05-13T07:37:16.072Z,0.73
2023-05-13T07:40:18.670Z,0.93
2023-05-13T07:43:24.013Z,0.82
2023-05-13T07:46:26.001Z,0.68
2023-05-13T07:49:27.938Z,0.65
2023-05-13T07:52:29.813Z,0.75
2023-05-13T07:55:31.776Z,0.60
2023-05-13T07:58:33.970Z,0.50
2023-05-13T08:01:35.977Z,0.70
2023-05-13T08:07:39.626Z,0.80
2023-05-13T08:10:41.447Z,0.88
2023-05-13T08:13:43.365Z,0.90
2023-05-13T08:19:47.284Z,0.88
2023-05-13T08:25:51.329Z,0.80
2023-05-13T08:28:54.747Z,0.73
2023-05-13T08:31:57.298Z,0.80
2023-05-13T08:38:01.418Z,0.70
2023-05-13T08:44:13.747Z,0.80
2023-05-13T08:47:52.588Z,0.80
2023-05-13T08:50:54.652Z,0.70
2023-05-13T08:56:58.655Z,0.50
2023-05-13T09:00:00.760Z,0.70
2023-05-13T09:06:04.964Z,0.80
2023-05-13T09:09:07.030Z,0.80
2023-05-13T09:15:13.270Z,0.70
2023-05-13T09:18:18.529Z,0.70
2023-05-13T09:21:29.634Z,0.70
2023-05-13T09:24:31.444Z,0.70
2023-05-13T09:27:38.702Z,2.97
2023-05-13T09:30:46.653Z,1.17
2023-05-13T09:33:54.983Z,0.80
2023-05-13T09:37:02.816Z,0.55
2023-05-13T09:40:05.534Z,0.68
2023-05-13T09:43:08.421Z,0.70
2023-05-13T09:46:10.717Z,0.50
2023-05-13T09:49:12.685Z,0.70
2023-05-13T09:55:18.825Z,0.60
2023-05-13T10:01:27.172Z,0.55
2023-05-13T10:04:29.311Z,0.60
2023-05-13T10:07:34.145Z,0.60
2023-05-13T10:10:36.924Z,0.68
2023-05-13T10:13:39.568Z,0.70
2023-05-13T10:16:41.783Z,0.68
2023-05-13T10:19:44.287Z,0.80
2023-05-13T10:22:46.837Z,0.50
2023-05-13T10:25:49.372Z,0.70
2023-05-13T10:28:51.286Z,0.93
2023-05-13T10:35:16.883Z,2.15
2023-05-13T10:38:56.208Z,1.23
2023-05-13T10:42:03.805Z,0.90
2023-05-13T10:45:06.060Z,0.70
2023-05-13T10:48:11.208Z,0.65
2023-05-13T10:51:17.971Z,0.70
2023-05-13T10:54:21.686Z,0.70
2023-05-13T10:57:36.024Z,0.98
2023-05-13T11:00:39.807Z,0.77
2023-05-13T11:03:42.742Z,0.70
2023-05-13T11:06:46.554Z,0.70
2023-05-13T11:09:51.661Z,0.60
2023-05-13T11:13:15.360Z,0.70
2023-05-13T11:16:17.302Z,0.73
2023-05-13T11:22:42.038Z,0.93
2023-05-13T11:25:45.687Z,0.90
2023-05-13T11:29:04.616Z,0.85
2023-05-13T11:32:07.182Z,0.98
2023-05-13T11:35:09.859Z,0.80
2023-05-13T11:38:23.428Z,0.73
2023-05-13T11:41:25.774Z,0.90
2023-05-13T11:44:28.403Z,0.90
2023-05-13T11:47:30.269Z,0.80
2023-05-13T11:50:32.611Z,0.98
2023-05-13T11:53:34.571Z,1.00
2023-05-13T11:59:47.586Z,1.02
2023-05-13T12:02:50.461Z,0.90
2023-05-13T12:06:01.374Z,1.08
2023-05-13T12:09:07.633Z,0.90
2023-05-13T12:12:10.173Z,0.80
2023-05-13T12:15:14.556Z,0.80
2023-05-13T12:18:16.524Z,0.90
2023-05-13T12:21:21.361Z,1.10
2023-05-13T12:24:23.308Z,1.00
2023-05-13T12:30:34.320Z,0.93
2023-05-13T12:33:44.670Z,1.00
2023-05-13T12:36:46.518Z,1.10
2023-05-13T12:39:48.396Z,1.10
2023-05-13T12:42:50.254Z,0.90
2023-05-13T12:45:54.831Z,0.80
2023-05-13T12:48:59.845Z,0.80
2023-05-13T12:52:04.929Z,1.00
2023-05-13T12:55:07.496Z,1.02
2023-05-13T12:58:11.352Z,0.90
2023-05-13T13:01:13.300Z,1.00
2023-05-13T13:04:16.976Z,1.08
2023-05-13T13:07:19.115Z,1.10
2023-05-13T13:10:21.154Z,1.00
2023-05-13T13:16:24.769Z,1.10
2023-05-13T13:19:26.824Z,1.00
2023-05-13T13:22:28.879Z,1.00
2023-05-13T13:25:30.930Z,1.00
2023-05-13T13:31:34.569Z,1.27
2023-05-13T13:34:37.367Z,1.00
2023-05-13T13:37:39.382Z,1.10
2023-05-13T13:43:43.208Z,1.20
2023-05-13T13:46:45.189Z,1.13
2023-05-13T13:52:48.996Z,1.10
2023-05-13T13:55:50.910Z,1.30
2023-05-13T13:58:52.719Z,1.30
2023-05-13T14:01:54.649Z,1.00
2023-05-13T14:04:56.466Z,1.00
2023-05-13T14:07:58.823Z,1.10
2023-05-13T14:11:00.716Z,2.20
2023-05-13T14:14:02.700Z,1.52
2023-05-13T14:17:04.669Z,1.17
2023-05-13T14:20:07.193Z,1.10
2023-05-13T14:23:09.092Z,3.33
2023-05-13T14:26:13.316Z,2.50
2023-05-13T14:29:16.007Z,2.53
2023-05-13T14:32:18.002Z,1.70
2023-05-13T14:35:19.904Z,1.50
2023-05-13T14:38:21.739Z,1.33
2023-05-13T14:41:24.288Z,1.30
2023-05-13T14:44:26.562Z,1.20
2023-05-13T14:47:28.502Z,1.10
2023-05-13T14:50:30.442Z,1.40
2023-05-13T14:53:32.396Z,1.20
2023-05-13T14:56:34.232Z,1.10
2023-05-13T14:59:36.300Z,1.20
2023-05-13T15:05:43.872Z,2.10
2023-05-13T15:08:46.075Z,1.77
2023-05-13T15:11:48.031Z,1.60
2023-05-13T15:14:53.891Z,1.30
2023-05-13T15:17:55.962Z,1.25
2023-05-13T15:23:59.652Z,1.03
2023-05-13T15:27:01.608Z,1.30
2023-05-13T15:30:03.574Z,2.05
2023-05-13T15:33:05.784Z,3.22
2023-05-13T15:36:11.544Z,1.80
2023-05-13T15:39:13.648Z,1.48
2023-05-13T15:42:15.882Z,1.13
2023-05-13T15:48:19.712Z,1.30
2023-05-13T15:51:21.816Z,1.00
2023-05-13T15:54:23.715Z,1.10
2023-05-13T15:57:25.742Z,1.20
2023-05-13T16:00:27.562Z,1.38
2023-05-13T16:03:29.378Z,1.30
2023-05-13T16:06:31.931Z,1.10
2023-05-13T16:09:33.806Z,1.02
2023-05-13T16:12:36.120Z,1.15
2023-05-13T16:15:38.002Z,0.98
2023-05-13T16:18:40.127Z,1.00
2023-05-13T16:24:44.308Z,1.20
2023-05-13T16:27:46.247Z,1.00
2023-05-13T16:30:48.129Z,1.08
2023-05-13T16:33:51.469Z,1.00
2023-05-13T16:36:53.274Z,0.90
2023-05-13T16:39:55.474Z,1.02
2023-05-13T16:46:03.801Z,0.90
2023-05-13T16:49:06.118Z,0.90
2023-05-13T16:55:10.084Z,0.90
2023-05-13T16:58:11.985Z,1.00
2023-05-13T17:01:13.992Z,0.98
2023-05-13T17:04:16.319Z,1.50
2023-05-13T17:10:20.315Z,1.50
2023-05-13T17:13:22.304Z,1.58
2023-05-13T17:16:24.675Z,1.35
2023-05-13T17:22:28.422Z,1.55
2023-05-13T17:25:30.309Z,1.52
2023-05-13T17:28:33.978Z,1.50
2023-05-13T17:31:35.870Z,1.45
2023-05-13T17:34:37.730Z,1.63
2023-05-13T17:37:39.693Z,1.60
2023-05-13T17:40:41.617Z,1.60
2023-05-13T17:43:43.503Z,1.70
2023-05-13T17:46:45.429Z,2.08
2023-05-13T17:49:47.326Z,1.65
2023-05-13T17:52:49.299Z,2.53
2023-05-13T17:55:51.248Z,7.53
2023-05-13T17:58:53.081Z,15.10
2023-05-13T18:01:55.016Z,16.77
2023-05-13T18:04:56.887Z,12.65
2023-05-13T18:07:59.493Z,9.82
2023-05-13T18:11:01.393Z,8.30
2023-05-13T18:14:03.534Z,8.73
2023-05-13T18:17:05.431Z,6.10
2023-05-13T18:20:07.956Z,4.80
2023-05-13T18:26:11.607Z,2.55
2023-05-13T18:29:13.482Z,2.72
2023-05-13T18:32:15.382Z,2.47
2023-05-13T18:35:17.459Z,2.88
2023-05-13T18:38:19.337Z,2.67
2023-05-13T18:41:21.559Z,3.08
2023-05-13T18:44:23.574Z,3.00
2023-05-13T18:47:26.692Z,3.03
2023-05-13T18:50:29.601Z,2.88
2023-05-13T18:53:31.613Z,3.30
2023-05-13T18:56:34.030Z,2.58
2023-05-13T18:59:36.160Z,2.90
2023-05-13T19:02:38.287Z,2.40
2023-05-13T19:05:40.298Z,2.80
2023-05-13T19:08:42.185Z,2.30
2023-05-13T19:11:44.592Z,2.60
2023-05-13T19:14:46.482Z,2.08
2023-05-13T19:17:48.436Z,2.60
2023-05-13T19:20:50.442Z,2.88
2023-05-13T19:23:52.291Z,2.70
2023-05-13T19:26:54.184Z,2.83
2023-05-13T19:29:56.014Z,2.60
2023-05-13T19:32:57.952Z,2.38
2023-05-13T19:35:59.934Z,3.10
2023-05-13T19:39:01.731Z,2.50
2023-05-13T19:42:04.598Z,2.30
2023-05-13T19:45:08.176Z,1.67
2023-05-13T19:48:10.336Z,1.50
2023-05-13T19:51:12.237Z,1.40
2023-05-13T19:54:14.148Z,1.40
2023-05-13T19:57:15.966Z,1.23
2023-05-13T20:00:18.433Z,1.43
2023-05-13T20:03:21.100Z,1.30
2023-05-13T20:06:23.032Z,1.40
2023-05-13T20:09:26.857Z,1.30
2023-05-13T20:12:28.694Z,1.20
2023-05-13T20:15:31.487Z,1.40
2023-05-13T20:18:33.890Z,1.20
2023-05-13T20:21:35.800Z,1.17
2023-05-13T20:24:37.714Z,1.30
2023-05-13T20:27:39.558Z,1.23
2023-05-13T20:30:45.159Z,1.50
2023-05-13T20:33:47.034Z,1.38
2023-05-13T20:36:48.913Z,1.40
2023-05-13T20:39:50.835Z,1.30
2023-05-13T20:42:52.729Z,1.48
2023-05-13T20:45:54.650Z,1.40
2023-05-13T20:48:56.561Z,1.40
2023-05-13T20:52:03.703Z,1.43
2023-05-13T20:55:06.270Z,1.67
2023-05-13T20:58:08.156Z,1.40
2023-05-13T21:01:10.039Z,1.33
2023-05-13T21:04:12.055Z,1.67
2023-05-13T21:07:15.322Z,1.48
2023-05-13T21:10:17.555Z,1.40
2023-05-13T21:13:19.421Z,1.55
2023-05-13T21:16:21.302Z,1.40
2023-05-13T21:19:24.656Z,1.67
2023-05-13T21:22:26.480Z,1.25
2023-05-13T21:25:28.330Z,1.50
2023-05-13T21:28:30.254Z,1.57
2023-05-13T21:31:32.155Z,1.53
2023-05-13T21:34:33.963Z,1.50
2023-05-13T21:37:35.764Z,1.50
2023-05-13T21:40:38.475Z,1.50
2023-05-13T21:46:42.075Z,1.60
2023-05-13T21:49:44.152Z,1.63
2023-05-13T21:52:46.049Z,1.38
2023-05-13T21:55:48.508Z,1.33
2023-05-13T22:01:52.530Z,1.65
2023-05-13T22:04:54.385Z,1.50
2023-05-13T22:07:56.321Z,1.27
2023-05-13T22:10:58.247Z,1.40
2023-05-13T22:14:00.534Z,1.30
2023-05-13T22:20:09.709Z,1.45
2023-05-13T22:23:11.714Z,1.48
2023-05-13T22:26:13.559Z,1.60
2023-05-13T22:29:15.501Z,1.40
2023-05-13T22:32:17.370Z,1.43
2023-05-13T22:35:19.210Z,1.50
2023-05-13T22:38:21.033Z,1.23
2023-05-13T22:41:23.898Z,1.40
2023-05-13T22:44:25.846Z,1.60
2023-05-13T22:47:27.811Z,1.47
2023-05-13T22:50:29.668Z,1.97
2023-05-13T22:53:31.521Z,1.50
2023-05-13T22:56:33.374Z,1.50
2023-05-13T22:59:35.618Z,1.50
2023-05-13T23:02:37.538Z,1.58
2023-05-13T23:05:39.386Z,1.60
2023-05-13T23:08:41.722Z,1.60
2023-05-13T23:11:43.601Z,1.60
2023-05-13T23:14:45.836Z,1.50
2023-05-13T23:17:47.711Z,1.30
2023-05-13T23:20:51.283Z,1.50
2023-05-13T23:23:53.179Z,1.50
2023-05-13T23:26:54.992Z,1.30
2023-05-13T23:29:57.054Z,1.60
2023-05-13T23:32:58.968Z,1.38
2023-05-13T23:36:00.900Z,1.40
2023-05-13T23:39:02.795Z,1.50
2023-05-13T23:42:04.823Z,1.40
2023-05-13T23:45:07.180Z,1.58
2023-05-13T23:48:09.166Z,1.58
2023-05-13T23:51:11.094Z,1.60
2023-05-13T23:54:12.968Z,1.57
2023-05-13T23:57:14.849Z,1.60
